Portada
METAR-TAF:

METAR-TAF

Aeroports :

Pago Pago, Illes Perifèriques Menors dels EUA

latitud: 14-20S, longitud: 170-43W, altitud: 3 m

Observació

L'informe es va fer fa 1 hora i 7 minuts, a les 05:50 UTC
Vent 5 kt amb direcció variable
Temperatura 28°C
Humitat 70%
Pressió 1012 hPa
Visibilitat: 17.7 km
Cel clar

METAR: NSTU 240550Z VRB05KT 11SM SKC 28/22 A2987 RMK SLP117 T02770224 10308 20277 52017

Hora: 19:57 (06:57 UTC)

Pronòstic

L'informe es va fer fa 1 hora i 17 minuts, a les 05:40 UTC
Pronòstic vàlid del 24 a les 06 UTC al 25 a les 06 UTC
Vent 14 kt del Est
Visibilitat: 10 km
Núvols disperses a una alçada de 1800 ft
Cel ennuvolat a una alçada de 4000 ft
xàfecs en les proximitats

TAF: NSTU 240540Z 2406/2506 10014KT P6SM VCSH SCT018 BKN040

Observacions i pronòstics meteorològics de més de 4000 aeroports (METAR i TAF).

Les estacions disponibles són els punts grocs i vermells al mapa.

Posi el ratolí al punt desitjat per veure el nom de l'estació.

Feu clic per veure les observacions i els pronòstics meteorològics.

Per canviar el mapa: feu clic els botons verds amb una creu de color negre per apropar; al botó verd amb un guió per allunyar la imatge; o en les fletxes verdes per a mapes adjacents.


METAR-TAF: